sensor_id;sensor_type;location;lat;lon;timestamp;pressure;altitude;pressure_sealevel;temperature;humidity
56992;BME280;42885;49.754;18.636;2022-12-29T00:01:06;98333.58;;;7.33;68.00
56992;BME280;42885;49.754;18.636;2022-12-29T00:03:55;98327.08;;;7.33;67.68
56992;BME280;42885;49.754;18.636;2022-12-29T00:06:44;98332.28;;;7.33;68.01
56992;BME280;42885;49.754;18.636;2022-12-29T00:09:35;98335.71;;;7.33;67.84
56992;BME280;42885;49.754;18.636;2022-12-29T00:12:24;98338.09;;;7.29;68.19
56992;BME280;42885;49.754;18.636;2022-12-29T00:15:15;98337.11;;;7.32;67.94
56992;BME280;42885;49.754;18.636;2022-12-29T00:18:22;98341.17;;;7.18;68.90
56992;BME280;42885;49.754;18.636;2022-12-29T00:21:16;98342.20;;;7.24;68.35
56992;BME280;42885;49.754;18.636;2022-12-29T00:24:24;98329.78;;;7.21;68.30
56992;BME280;42885;49.754;18.636;2022-12-29T00:27:31;98322.36;;;7.22;68.13
56992;BME280;42885;49.754;18.636;2022-12-29T00:30:36;98322.19;;;7.16;68.38
56992;BME280;42885;49.754;18.636;2022-12-29T00:33:42;98306.09;;;7.16;67.99
56992;BME280;42885;49.754;18.636;2022-12-29T00:36:49;98306.57;;;7.16;68.29
56992;BME280;42885;49.754;18.636;2022-12-29T00:39:38;98289.28;;;7.05;69.06
56992;BME280;42885;49.754;18.636;2022-12-29T00:42:46;98295.55;;;7.00;69.48
56992;BME280;42885;49.754;18.636;2022-12-29T00:45:53;98286.08;;;7.08;69.14
56992;BME280;42885;49.754;18.636;2022-12-29T00:48:41;98284.19;;;7.12;69.17
56992;BME280;42885;49.754;18.636;2022-12-29T00:51:48;98287.38;;;7.08;69.42
56992;BME280;42885;49.754;18.636;2022-12-29T00:54:39;98279.56;;;7.19;68.89
56992;BME280;42885;49.754;18.636;2022-12-29T00:57:28;98285.42;;;7.13;68.99
56992;BME280;42885;49.754;18.636;2022-12-29T01:00:18;98289.76;;;7.23;68.58
56992;BME280;42885;49.754;18.636;2022-12-29T01:03:08;98284.45;;;7.16;68.68
56992;BME280;42885;49.754;18.636;2022-12-29T01:06:02;98278.96;;;7.22;68.56
56992;BME280;42885;49.754;18.636;2022-12-29T01:08:52;98285.15;;;7.20;69.46
56992;BME280;42885;49.754;18.636;2022-12-29T01:16:00;98282.94;;;7.29;69.19
56992;BME280;42885;49.754;18.636;2022-12-29T01:18:48;98284.50;;;7.34;68.95
56992;BME280;42885;49.754;18.636;2022-12-29T01:21:38;98285.97;;;7.39;68.59
56992;BME280;42885;49.754;18.636;2022-12-29T01:24:27;98280.22;;;7.41;68.76
56992;BME280;42885;49.754;18.636;2022-12-29T01:27:16;98288.73;;;7.45;68.79
56992;BME280;42885;49.754;18.636;2022-12-29T01:30:06;98295.02;;;7.41;68.79
56992;BME280;42885;49.754;18.636;2022-12-29T01:32:55;98308.73;;;7.44;69.05
56992;BME280;42885;49.754;18.636;2022-12-29T01:35:45;98300.10;;;7.53;68.38
56992;BME280;42885;49.754;18.636;2022-12-29T01:38:35;98292.61;;;7.64;68.06
56992;BME280;42885;49.754;18.636;2022-12-29T01:41:25;98295.05;;;7.58;68.32
56992;BME280;42885;49.754;18.636;2022-12-29T01:47:43;98283.42;;;7.75;67.69
56992;BME280;42885;49.754;18.636;2022-12-29T01:50:43;98284.16;;;7.59;68.60
56992;BME280;42885;49.754;18.636;2022-12-29T01:53:30;98280.50;;;7.63;68.31
56992;BME280;42885;49.754;18.636;2022-12-29T01:56:20;98266.40;;;7.67;67.63
56992;BME280;42885;49.754;18.636;2022-12-29T01:59:13;98259.84;;;7.78;66.60
56992;BME280;42885;49.754;18.636;2022-12-29T02:02:03;98261.52;;;7.79;67.29
56992;BME280;42885;49.754;18.636;2022-12-29T02:04:53;98256.72;;;7.89;66.40
56992;BME280;42885;49.754;18.636;2022-12-29T02:07:45;98241.36;;;7.91;65.84
56992;BME280;42885;49.754;18.636;2022-12-29T02:10:36;98234.92;;;7.98;65.11
56992;BME280;42885;49.754;18.636;2022-12-29T02:13:26;98238.47;;;8.06;65.16
56992;BME280;42885;49.754;18.636;2022-12-29T02:29:39;98238.75;;;8.26;63.26
56992;BME280;42885;49.754;18.636;2022-12-29T02:32:45;98227.67;;;8.39;63.09
56992;BME280;42885;49.754;18.636;2022-12-29T02:35:55;98227.36;;;8.36;63.27
56992;BME280;42885;49.754;18.636;2022-12-29T02:41:47;98233.57;;;8.34;64.60
56992;BME280;42885;49.754;18.636;2022-12-29T02:50:41;98230.20;;;8.40;64.00
56992;BME280;42885;49.754;18.636;2022-12-29T02:53:32;98224.38;;;8.44;64.05
56992;BME280;42885;49.754;18.636;2022-12-29T02:56:39;98215.62;;;8.45;63.95
56992;BME280;42885;49.754;18.636;2022-12-29T02:59:29;98210.98;;;8.50;63.77
56992;BME280;42885;49.754;18.636;2022-12-29T03:05:42;98200.90;;;8.44;64.48
56992;BME280;42885;49.754;18.636;2022-12-29T03:11:22;98199.25;;;8.50;64.13
56992;BME280;42885;49.754;18.636;2022-12-29T03:18:14;98209.17;;;8.93;60.97
56992;BME280;42885;49.754;18.636;2022-12-29T03:21:12;98206.74;;;8.90;61.31
56992;BME280;42885;49.754;18.636;2022-12-29T03:24:03;98218.64;;;8.87;61.60
56992;BME280;42885;49.754;18.636;2022-12-29T03:26:55;98219.69;;;8.92;61.42
56992;BME280;42885;49.754;18.636;2022-12-29T03:29:46;98203.50;;;8.94;61.27
56992;BME280;42885;49.754;18.636;2022-12-29T03:32:42;98203.96;;;8.77;62.59
56992;BME280;42885;49.754;18.636;2022-12-29T03:35:35;98196.28;;;8.74;62.94
56992;BME280;42885;49.754;18.636;2022-12-29T03:38:30;98185.47;;;8.73;63.74
56992;BME280;42885;49.754;18.636;2022-12-29T03:41:23;98205.77;;;8.68;64.29
56992;BME280;42885;49.754;18.636;2022-12-29T03:44:10;98207.97;;;8.67;64.44
56992;BME280;42885;49.754;18.636;2022-12-29T03:47:00;98210.44;;;8.70;64.46
56992;BME280;42885;49.754;18.636;2022-12-29T03:49:51;98216.66;;;8.59;65.04
56992;BME280;42885;49.754;18.636;2022-12-29T03:52:40;98225.52;;;8.56;65.22
56992;BME280;42885;49.754;18.636;2022-12-29T03:55:29;98220.00;;;8.53;65.68
56992;BME280;42885;49.754;18.636;2022-12-29T03:58:18;98227.03;;;8.60;65.36
56992;BME280;42885;49.754;18.636;2022-12-29T04:01:20;98218.14;;;8.56;65.77
56992;BME280;42885;49.754;18.636;2022-12-29T04:04:10;98221.94;;;8.66;65.95
56992;BME280;42885;49.754;18.636;2022-12-29T04:06:59;98217.20;;;8.65;65.79
56992;BME280;42885;49.754;18.636;2022-12-29T04:09:48;98222.10;;;8.72;65.57
56992;BME280;42885;49.754;18.636;2022-12-29T04:12:39;98224.53;;;8.75;65.49
56992;BME280;42885;49.754;18.636;2022-12-29T04:15:29;98219.77;;;8.74;65.65
56992;BME280;42885;49.754;18.636;2022-12-29T04:18:18;98214.47;;;8.60;66.36
56992;BME280;42885;49.754;18.636;2022-12-29T04:21:08;98221.89;;;8.50;66.87
56992;BME280;42885;49.754;18.636;2022-12-29T04:23:59;98208.95;;;8.57;67.06
56992;BME280;42885;49.754;18.636;2022-12-29T04:26:48;98205.94;;;8.47;67.70
56992;BME280;42885;49.754;18.636;2022-12-29T04:29:54;98201.66;;;8.46;67.98
56992;BME280;42885;49.754;18.636;2022-12-29T04:32:56;98195.75;;;8.43;68.64
56992;BME280;42885;49.754;18.636;2022-12-29T04:35:46;98190.77;;;8.47;68.60
56992;BME280;42885;49.754;18.636;2022-12-29T04:38:35;98181.10;;;8.40;69.59
56992;BME280;42885;49.754;18.636;2022-12-29T04:41:25;98179.48;;;8.46;69.27
56992;BME280;42885;49.754;18.636;2022-12-29T04:44:14;98173.88;;;8.54;68.73
56992;BME280;42885;49.754;18.636;2022-12-29T04:47:21;98180.25;;;8.57;68.50
56992;BME280;42885;49.754;18.636;2022-12-29T04:50:16;98165.98;;;8.56;68.62
56992;BME280;42885;49.754;18.636;2022-12-29T04:53:07;98182.00;;;8.57;69.06
56992;BME280;42885;49.754;18.636;2022-12-29T04:55:56;98176.95;;;8.45;69.97
56992;BME280;42885;49.754;18.636;2022-12-29T04:58:44;98167.28;;;8.56;70.06
56992;BME280;42885;49.754;18.636;2022-12-29T05:01:34;98165.02;;;8.65;70.00
56992;BME280;42885;49.754;18.636;2022-12-29T05:04:23;98173.35;;;8.72;69.53
56992;BME280;42885;49.754;18.636;2022-12-29T05:07:13;98165.90;;;8.73;69.40
56992;BME280;42885;49.754;18.636;2022-12-29T05:10:04;98173.40;;;8.79;69.70
56992;BME280;42885;49.754;18.636;2022-12-29T05:12:54;98167.17;;;8.82;69.46
56992;BME280;42885;49.754;18.636;2022-12-29T05:15:51;98155.69;;;8.77;69.80
56992;BME280;42885;49.754;18.636;2022-12-29T05:19:03;98168.48;;;8.82;70.07
56992;BME280;42885;49.754;18.636;2022-12-29T05:21:54;98164.05;;;8.91;69.81
56992;BME280;42885;49.754;18.636;2022-12-29T05:24:43;98168.31;;;8.69;71.58
56992;BME280;42885;49.754;18.636;2022-12-29T05:27:33;98169.06;;;8.71;72.09
56992;BME280;42885;49.754;18.636;2022-12-29T05:30:26;98167.38;;;8.86;70.68
56992;BME280;42885;49.754;18.636;2022-12-29T05:33:16;98174.19;;;8.89;71.05
56992;BME280;42885;49.754;18.636;2022-12-29T05:36:07;98176.05;;;8.87;71.25
56992;BME280;42885;49.754;18.636;2022-12-29T05:38:57;98170.61;;;8.83;71.76
56992;BME280;42885;49.754;18.636;2022-12-29T05:41:47;98173.64;;;8.91;71.13
56992;BME280;42885;49.754;18.636;2022-12-29T05:44:50;98166.86;;;8.95;70.40
56992;BME280;42885;49.754;18.636;2022-12-29T05:47:54;98160.93;;;9.01;70.94
56992;BME280;42885;49.754;18.636;2022-12-29T05:51:02;98165.66;;;8.94;71.65
56992;BME280;42885;49.754;18.636;2022-12-29T05:53:55;98160.93;;;9.01;71.98
56992;BME280;42885;49.754;18.636;2022-12-29T05:56:44;98152.61;;;8.94;72.69
56992;BME280;42885;49.754;18.636;2022-12-29T05:59:34;98154.11;;;8.98;72.48
56992;BME280;42885;49.754;18.636;2022-12-29T06:02:24;98152.98;;;8.95;73.18
56992;BME280;42885;49.754;18.636;2022-12-29T06:05:13;98160.22;;;8.90;74.10
56992;BME280;42885;49.754;18.636;2022-12-29T06:08:02;98156.42;;;8.95;73.91
56992;BME280;42885;49.754;18.636;2022-12-29T06:10:51;98164.80;;;8.93;74.13
56992;BME280;42885;49.754;18.636;2022-12-29T06:13:40;98154.17;;;8.89;74.43
56992;BME280;42885;49.754;18.636;2022-12-29T06:16:30;98166.63;;;8.84;75.17
56992;BME280;42885;49.754;18.636;2022-12-29T06:19:20;98166.27;;;8.74;75.65
56992;BME280;42885;49.754;18.636;2022-12-29T06:22:09;98163.16;;;8.84;75.70
56992;BME280;42885;49.754;18.636;2022-12-29T06:25:01;98172.95;;;8.80;76.09
56992;BME280;42885;49.754;18.636;2022-12-29T06:27:50;98175.33;;;8.76;76.37
56992;BME280;42885;49.754;18.636;2022-12-29T06:30:45;98171.34;;;8.77;76.34
56992;BME280;42885;49.754;18.636;2022-12-29T06:33:35;98173.70;;;8.82;76.45
56992;BME280;42885;49.754;18.636;2022-12-29T06:36:24;98174.15;;;8.81;76.86
56992;BME280;42885;49.754;18.636;2022-12-29T06:39:14;98174.66;;;8.72;77.75
56992;BME280;42885;49.754;18.636;2022-12-29T06:42:05;98168.36;;;8.76;78.17
56992;BME280;42885;49.754;18.636;2022-12-29T06:44:58;98168.20;;;8.71;78.92
56992;BME280;42885;49.754;18.636;2022-12-29T06:47:49;98168.11;;;8.81;78.36
56992;BME280;42885;49.754;18.636;2022-12-29T06:50:38;98160.66;;;8.82;78.58
56992;BME280;42885;49.754;18.636;2022-12-29T06:53:27;98158.12;;;8.80;78.96
56992;BME280;42885;49.754;18.636;2022-12-29T06:56:17;98155.13;;;8.79;79.93
56992;BME280;42885;49.754;18.636;2022-12-29T06:59:06;98146.18;;;8.76;80.38
56992;BME280;42885;49.754;18.636;2022-12-29T07:01:56;98142.02;;;8.81;80.35
56992;BME280;42885;49.754;18.636;2022-12-29T07:04:44;98137.54;;;8.83;81.15
56992;BME280;42885;49.754;18.636;2022-12-29T07:07:33;98137.54;;;8.83;81.15
56992;BME280;42885;49.754;18.636;2022-12-29T07:10:23;98138.36;;;8.84;81.72
56992;BME280;42885;49.754;18.636;2022-12-29T07:13:13;98137.91;;;8.84;82.00
56992;BME280;42885;49.754;18.636;2022-12-29T07:16:09;98138.89;;;8.90;81.68
56992;BME280;42885;49.754;18.636;2022-12-29T07:18:58;98127.44;;;8.93;81.98
56992;BME280;42885;49.754;18.636;2022-12-29T07:21:48;98131.73;;;8.94;82.25
56992;BME280;42885;49.754;18.636;2022-12-29T07:24:37;98127.00;;;9.01;81.96
56992;BME280;42885;49.754;18.636;2022-12-29T07:27:26;98121.89;;;9.06;81.68
56992;BME280;42885;49.754;18.636;2022-12-29T07:30:15;98131.66;;;9.03;81.76
56992;BME280;42885;49.754;18.636;2022-12-29T07:33:05;98142.73;;;9.15;81.16
56992;BME280;42885;49.754;18.636;2022-12-29T07:35:54;98137.80;;;9.18;81.24
56992;BME280;42885;49.754;18.636;2022-12-29T07:38:43;98135.69;;;9.08;81.73
56992;BME280;42885;49.754;18.636;2022-12-29T07:41:33;98158.55;;;9.12;82.56
56992;BME280;42885;49.754;18.636;2022-12-29T07:44:23;98148.03;;;9.14;82.58
56992;BME280;42885;49.754;18.636;2022-12-29T07:47:22;98163.50;;;9.09;82.90
56992;BME280;42885;49.754;18.636;2022-12-29T07:50:12;98168.69;;;9.02;83.74
56992;BME280;42885;49.754;18.636;2022-12-29T07:53:02;98175.92;;;9.13;83.08
56992;BME280;42885;49.754;18.636;2022-12-29T07:55:51;98179.23;;;9.08;83.45
56992;BME280;42885;49.754;18.636;2022-12-29T07:58:42;98178.34;;;9.16;83.31
56992;BME280;42885;49.754;18.636;2022-12-29T08:01:31;98178.65;;;9.19;83.01
56992;BME280;42885;49.754;18.636;2022-12-29T08:04:20;98171.34;;;9.17;83.12
56992;BME280;42885;49.754;18.636;2022-12-29T08:07:08;98171.27;;;9.18;82.71
56992;BME280;42885;49.754;18.636;2022-12-29T08:09:57;98175.44;;;9.14;83.76
56992;BME280;42885;49.754;18.636;2022-12-29T08:12:46;98167.79;;;9.11;83.80
56992;BME280;42885;49.754;18.636;2022-12-29T08:15:37;98159.10;;;9.10;84.39
56992;BME280;42885;49.754;18.636;2022-12-29T08:18:26;98145.86;;;9.06;83.48
56992;BME280;42885;49.754;18.636;2022-12-29T08:21:16;98158.02;;;9.14;83.82
56992;BME280;42885;49.754;18.636;2022-12-29T08:24:05;98160.00;;;9.02;85.19
56992;BME280;42885;49.754;18.636;2022-12-29T08:26:54;98150.64;;;9.14;84.90
56992;BME280;42885;49.754;18.636;2022-12-29T08:29:44;98147.17;;;9.06;85.41
56992;BME280;42885;49.754;18.636;2022-12-29T08:32:33;98163.95;;;9.09;85.80
56992;BME280;42885;49.754;18.636;2022-12-29T08:35:22;98153.17;;;9.15;85.59
56992;BME280;42885;49.754;18.636;2022-12-29T08:38:11;98154.59;;;9.21;85.28
56992;BME280;42885;49.754;18.636;2022-12-29T08:41:02;98150.17;;;9.38;84.57
56992;BME280;42885;49.754;18.636;2022-12-29T08:43:51;98153.37;;;9.43;84.23
56992;BME280;42885;49.754;18.636;2022-12-29T08:46:40;98156.06;;;9.41;84.57
56992;BME280;42885;49.754;18.636;2022-12-29T08:49:29;98144.49;;;9.45;84.50
56992;BME280;42885;49.754;18.636;2022-12-29T08:52:18;98144.49;;;9.45;84.50
56992;BME280;42885;49.754;18.636;2022-12-29T08:55:08;98144.70;;;9.49;84.82
56992;BME280;42885;49.754;18.636;2022-12-29T08:57:57;98130.91;;;9.62;84.55
56992;BME280;42885;49.754;18.636;2022-12-29T09:00:47;98132.07;;;9.72;84.24
56992;BME280;42885;49.754;18.636;2022-12-29T09:03:37;98135.51;;;9.73;83.77
56992;BME280;42885;49.754;18.636;2022-12-29T09:06:25;98128.62;;;9.79;84.09
56992;BME280;42885;49.754;18.636;2022-12-29T09:09:14;98120.03;;;9.77;83.64
56992;BME280;42885;49.754;18.636;2022-12-29T09:12:03;98120.30;;;9.87;83.33
56992;BME280;42885;49.754;18.636;2022-12-29T09:14:52;98119.85;;;9.87;83.47
56992;BME280;42885;49.754;18.636;2022-12-29T09:17:42;98123.02;;;10.00;82.49
56992;BME280;42885;49.754;18.636;2022-12-29T09:20:35;98119.09;;;10.00;81.95
56992;BME280;42885;49.754;18.636;2022-12-29T09:23:26;98121.27;;;10.08;81.15
56992;BME280;42885;49.754;18.636;2022-12-29T09:26:15;98121.17;;;10.02;81.21
56992;BME280;42885;49.754;18.636;2022-12-29T09:29:04;98115.17;;;10.00;81.30
56992;BME280;42885;49.754;18.636;2022-12-29T09:31:53;98120.41;;;10.07;81.46
56992;BME280;42885;49.754;18.636;2022-12-29T09:34:43;98116.31;;;9.96;82.26
56992;BME280;42885;49.754;18.636;2022-12-29T09:37:33;98112.77;;;10.04;81.75
56992;BME280;42885;49.754;18.636;2022-12-29T09:46:32;98120.52;;;9.98;83.50
56992;BME280;42885;49.754;18.636;2022-12-29T09:49:40;98126.30;;;9.89;83.97
56992;BME280;42885;49.754;18.636;2022-12-29T09:52:36;98116.59;;;9.98;83.58
56992;BME280;42885;49.754;18.636;2022-12-29T09:55:36;98115.17;;;10.07;83.54
56992;BME280;42885;49.754;18.636;2022-12-29T10:01:52;98137.98;;;10.12;83.80
56992;BME280;42885;49.754;18.636;2022-12-29T10:04:42;98129.28;;;10.41;82.76
56992;BME280;42885;49.754;18.636;2022-12-29T10:07:47;98126.37;;;10.67;80.02
56992;BME280;42885;49.754;18.636;2022-12-29T10:10:48;98129.05;;;10.80;78.27
56992;BME280;42885;49.754;18.636;2022-12-29T10:17:45;98125.29;;;11.12;76.74
56992;BME280;42885;49.754;18.636;2022-12-29T10:26:18;98121.97;;;11.43;73.79
56992;BME280;42885;49.754;18.636;2022-12-29T10:29:14;98113.63;;;11.23;74.49
56992;BME280;42885;49.754;18.636;2022-12-29T10:32:17;98106.77;;;11.28;74.08
56992;BME280;42885;49.754;18.636;2022-12-29T10:35:47;98115.85;;;11.29;73.89
56992;BME280;42885;49.754;18.636;2022-12-29T10:38:03;98119.14;;;11.26;74.65
56992;BME280;42885;49.754;18.636;2022-12-29T10:44:11;98116.58;;;11.32;73.82
56992;BME280;42885;49.754;18.636;2022-12-29T10:47:18;98113.56;;;11.38;73.71
56992;BME280;42885;49.754;18.636;2022-12-29T10:50:02;98107.27;;;11.27;74.14
56992;BME280;42885;49.754;18.636;2022-12-29T10:52:52;98099.03;;;11.06;75.42
56992;BME280;42885;49.754;18.636;2022-12-29T10:55:44;98073.77;;;11.12;75.33
56992;BME280;42885;49.754;18.636;2022-12-29T10:58:42;98080.88;;;11.23;75.25
56992;BME280;42885;49.754;18.636;2022-12-29T11:05:16;98082.60;;;13.56;60.98
56992;BME280;42885;49.754;18.636;2022-12-29T11:08:15;98073.46;;;14.01;58.54
56992;BME280;42885;49.754;18.636;2022-12-29T11:14:34;98075.47;;;14.15;56.13
56992;BME280;42885;49.754;18.636;2022-12-29T11:21:37;98072.39;;;14.04;56.33
56992;BME280;42885;49.754;18.636;2022-12-29T11:24:29;98080.73;;;14.49;55.22
56992;BME280;42885;49.754;18.636;2022-12-29T11:28:14;98070.78;;;15.03;52.95
56992;BME280;42885;49.754;18.636;2022-12-29T11:31:04;98077.66;;;14.71;53.73
56992;BME280;42885;49.754;18.636;2022-12-29T11:33:59;98094.38;;;13.08;60.29
56992;BME280;42885;49.754;18.636;2022-12-29T11:37:14;98093.84;;;13.22;60.31
56992;BME280;42885;49.754;18.636;2022-12-29T11:40:26;98096.41;;;12.24;64.90
56992;BME280;42885;49.754;18.636;2022-12-29T11:43:31;98089.17;;;12.02;67.14
56992;BME280;42885;49.754;18.636;2022-12-29T11:46:58;98102.40;;;12.14;67.92
56992;BME280;42885;49.754;18.636;2022-12-29T11:50:04;98100.19;;;12.07;69.00
56992;BME280;42885;49.754;18.636;2022-12-29T11:53:13;98094.80;;;11.77;69.37
56992;BME280;42885;49.754;18.636;2022-12-29T12:00:17;98094.84;;;11.70;70.55
56992;BME280;42885;49.754;18.636;2022-12-29T12:07:37;98084.05;;;12.94;61.33
56992;BME280;42885;49.754;18.636;2022-12-29T12:14:55;98086.24;;;12.38;65.14
56992;BME280;42885;49.754;18.636;2022-12-29T12:18:50;98082.25;;;14.52;56.89
56992;BME280;42885;49.754;18.636;2022-12-29T12:21:46;98076.75;;;15.90;50.01
56992;BME280;42885;49.754;18.636;2022-12-29T12:24:44;98077.08;;;15.75;49.76
56992;BME280;42885;49.754;18.636;2022-12-29T12:27:37;98077.61;;;15.48;50.11
56992;BME280;42885;49.754;18.636;2022-12-29T12:34:14;98085.51;;;15.32;49.96
56992;BME280;42885;49.754;18.636;2022-12-29T12:40:22;98074.56;;;15.16;49.51
56992;BME280;42885;49.754;18.636;2022-12-29T12:46:42;98085.38;;;14.51;52.33
56992;BME280;42885;49.754;18.636;2022-12-29T12:50:02;98078.81;;;13.71;54.55
56992;BME280;42885;49.754;18.636;2022-12-29T12:52:54;98086.25;;;13.42;56.87
56992;BME280;42885;49.754;18.636;2022-12-29T13:08:28;98067.31;;;13.19;58.26
56992;BME280;42885;49.754;18.636;2022-12-29T13:11:18;98084.76;;;12.16;63.46
56992;BME280;42885;49.754;18.636;2022-12-29T13:20:25;98067.63;;;12.79;61.04
56992;BME280;42885;49.754;18.636;2022-12-29T13:23:23;98075.45;;;13.22;59.45
56992;BME280;42885;49.754;18.636;2022-12-29T13:26:26;98076.20;;;12.19;62.83
56992;BME280;42885;49.754;18.636;2022-12-29T13:32:28;98095.61;;;11.65;67.50
56992;BME280;42885;49.754;18.636;2022-12-29T13:35:28;98093.19;;;11.15;70.69
56992;BME280;42885;49.754;18.636;2022-12-29T13:38:24;98088.55;;;10.86;73.52
56992;BME280;42885;49.754;18.636;2022-12-29T13:41:17;98085.39;;;10.73;75.12
56992;BME280;42885;49.754;18.636;2022-12-29T13:44:06;98082.87;;;10.44;77.68
56992;BME280;42885;49.754;18.636;2022-12-29T13:46:59;98075.53;;;11.12;74.13
56992;BME280;42885;49.754;18.636;2022-12-29T13:49:48;98066.54;;;11.75;68.65
56992;BME280;42885;49.754;18.636;2022-12-29T14:02:08;98069.04;;;10.28;79.10
56992;BME280;42885;49.754;18.636;2022-12-29T14:05:05;98067.73;;;10.21;80.42
56992;BME280;42885;49.754;18.636;2022-12-29T14:08:00;98069.79;;;10.08;81.72
56992;BME280;42885;49.754;18.636;2022-12-29T14:10:51;98071.50;;;10.09;81.90
56992;BME280;42885;49.754;18.636;2022-12-29T14:13:44;98073.91;;;9.98;83.39
56992;BME280;42885;49.754;18.636;2022-12-29T14:16:35;98065.33;;;9.88;83.75
56992;BME280;42885;49.754;18.636;2022-12-29T14:19:32;98062.63;;;9.90;84.03
56992;BME280;42885;49.754;18.636;2022-12-29T14:22:26;98068.14;;;9.85;85.34
56992;BME280;42885;49.754;18.636;2022-12-29T14:28:34;98055.34;;;9.66;87.49
56992;BME280;42885;49.754;18.636;2022-12-29T14:37:31;98064.39;;;9.60;88.44
56992;BME280;42885;49.754;18.636;2022-12-29T14:40:26;98066.53;;;9.68;88.05
56992;BME280;42885;49.754;18.636;2022-12-29T14:43:24;98049.09;;;9.69;88.11
56992;BME280;42885;49.754;18.636;2022-12-29T14:46:13;98054.48;;;9.66;88.88
56992;BME280;42885;49.754;18.636;2022-12-29T14:49:03;98055.44;;;9.72;88.42
56992;BME280;42885;49.754;18.636;2022-12-29T14:51:54;98063.27;;;9.64;88.53
56992;BME280;42885;49.754;18.636;2022-12-29T14:54:46;98051.51;;;9.64;88.74
56992;BME280;42885;49.754;18.636;2022-12-29T14:57:41;98050.77;;;9.62;89.10
56992;BME280;42885;49.754;18.636;2022-12-29T15:00:34;98058.22;;;9.54;89.12
56992;BME280;42885;49.754;18.636;2022-12-29T15:03:29;98048.88;;;9.50;89.79
56992;BME280;42885;49.754;18.636;2022-12-29T15:06:19;98046.94;;;9.46;90.83
56992;BME280;42885;49.754;18.636;2022-12-29T15:09:17;98050.75;;;9.48;91.14
56992;BME280;42885;49.754;18.636;2022-12-29T15:15:26;98060.08;;;9.45;91.25
56992;BME280;42885;49.754;18.636;2022-12-29T15:34:21;98049.05;;;9.40;93.88
56992;BME280;42885;49.754;18.636;2022-12-29T15:37:19;98044.03;;;9.44;92.86
56992;BME280;42885;49.754;18.636;2022-12-29T15:40:20;98054.66;;;9.48;92.04
56992;BME280;42885;49.754;18.636;2022-12-29T15:46:15;98054.55;;;9.35;92.37
56992;BME280;42885;49.754;18.636;2022-12-29T15:49:06;98060.73;;;9.48;90.96
56992;BME280;42885;49.754;18.636;2022-12-29T15:51:58;98055.03;;;9.49;90.66
56992;BME280;42885;49.754;18.636;2022-12-29T15:54:52;98043.28;;;9.34;91.85
56992;BME280;42885;49.754;18.636;2022-12-29T15:57:43;98054.09;;;9.35;92.06
56992;BME280;42885;49.754;18.636;2022-12-29T16:00:35;98058.11;;;9.41;91.59
56992;BME280;42885;49.754;18.636;2022-12-29T16:03:27;98060.25;;;9.49;89.50
56992;BME280;42885;49.754;18.636;2022-12-29T16:06:34;98060.25;;;9.49;89.50
56992;BME280;42885;49.754;18.636;2022-12-29T16:09:28;98052.34;;;9.50;90.16
56992;BME280;42885;49.754;18.636;2022-12-29T16:12:19;98054.84;;;9.38;90.37
56992;BME280;42885;49.754;18.636;2022-12-29T16:15:12;98050.75;;;9.48;89.51
56992;BME280;42885;49.754;18.636;2022-12-29T16:18:01;98050.75;;;9.48;89.51
56992;BME280;42885;49.754;18.636;2022-12-29T16:20:50;98047.31;;;9.47;88.92
56992;BME280;42885;49.754;18.636;2022-12-29T16:23:41;98060.00;;;9.46;88.97
56992;BME280;42885;49.754;18.636;2022-12-29T16:26:31;98045.88;;;9.42;88.98
56992;BME280;42885;49.754;18.636;2022-12-29T16:29:21;98060.45;;;9.46;88.41
56992;BME280;42885;49.754;18.636;2022-12-29T16:32:28;98060.45;;;9.46;88.41
56992;BME280;42885;49.754;18.636;2022-12-29T16:35:21;98071.66;;;9.55;87.52
56992;BME280;42885;49.754;18.636;2022-12-29T16:38:20;98076.52;;;9.54;87.73
56992;BME280;42885;49.754;18.636;2022-12-29T16:41:09;98074.81;;;9.46;88.07
56992;BME280;42885;49.754;18.636;2022-12-29T16:44:21;98074.81;;;9.46;88.07
56992;BME280;42885;49.754;18.636;2022-12-29T16:50:11;98077.90;;;9.53;87.45
56992;BME280;42885;49.754;18.636;2022-12-29T16:53:02;98084.05;;;9.44;87.75
56992;BME280;42885;49.754;18.636;2022-12-29T16:55:54;98084.80;;;9.39;88.12
56992;BME280;42885;49.754;18.636;2022-12-29T16:59:00;98087.86;;;9.39;88.00
56992;BME280;42885;49.754;18.636;2022-12-29T17:01:44;98088.52;;;9.42;88.06
56992;BME280;42885;49.754;18.636;2022-12-29T17:04:33;98083.94;;;9.39;88.36
56992;BME280;42885;49.754;18.636;2022-12-29T17:07:25;98072.00;;;9.42;88.02
56992;BME280;42885;49.754;18.636;2022-12-29T17:10:15;98083.39;;;9.48;87.13
56992;BME280;42885;49.754;18.636;2022-12-29T17:13:05;98072.66;;;9.45;87.44
56992;BME280;42885;49.754;18.636;2022-12-29T17:15:54;98084.17;;;9.64;86.43
56992;BME280;42885;49.754;18.636;2022-12-29T17:18:43;98068.48;;;9.43;87.33
56992;BME280;42885;49.754;18.636;2022-12-29T17:21:33;98085.91;;;9.42;87.65
56992;BME280;42885;49.754;18.636;2022-12-29T17:24:22;98086.49;;;9.47;87.29
56992;BME280;42885;49.754;18.636;2022-12-29T17:27:22;98087.41;;;9.39;87.81
56992;BME280;42885;49.754;18.636;2022-12-29T17:30:15;98088.15;;;9.41;87.67
56992;BME280;42885;49.754;18.636;2022-12-29T17:33:08;98092.65;;;9.46;86.98
56992;BME280;42885;49.754;18.636;2022-12-29T17:35:57;98102.98;;;9.48;86.69
56992;BME280;42885;49.754;18.636;2022-12-29T17:38:46;98105.05;;;9.57;85.92
56992;BME280;42885;49.754;18.636;2022-12-29T17:41:36;98101.78;;;9.54;86.36
56992;BME280;42885;49.754;18.636;2022-12-29T17:44:26;98105.34;;;9.60;85.86
56992;BME280;42885;49.754;18.636;2022-12-29T17:47:16;98095.83;;;9.59;85.67
56992;BME280;42885;49.754;18.636;2022-12-29T17:50:08;98094.44;;;9.60;85.59
56992;BME280;42885;49.754;18.636;2022-12-29T17:53:10;98080.08;;;9.68;85.00
56992;BME280;42885;49.754;18.636;2022-12-29T17:55:51;98075.59;;;9.62;85.33
56992;BME280;42885;49.754;18.636;2022-12-29T17:58:42;98081.92;;;9.66;85.12